GPX5TA BKPR-EDDS

Flight info

Callsign GPX5TA
Flight time 1h 45m
Altitude 36000
Route KUKAD1D KUKAD DCT RETRA DCT KUSIB DCT OLEZE DCT KFT DCT RASTA DCT TITIG L173 DODIL T127 TEKSI TEKSI1W
Aircraft A319/M-SDE3FGHIRWY/LB1

Departure

Time 2026-04-07 17:29
Airport Priština Adem Jashari International Airport (BKPR)

Arrival

Time 2026-04-07 19:14
Airport Stuttgart Airport (EDDS)
Time Latitude Longitude Altitude Speed Heading
2026-04-07 17:04 42.57418 21.03109 1800 ft 0 kts 266°
2026-04-07 17:19 42.57419 21.03127 1798 ft 2 kts 265°
2026-04-07 17:20 42.57420 21.03147 1798 ft 2 kts 266°
2026-04-07 17:20 42.57422 21.03167 1798 ft 2 kts 265°
2026-04-07 17:20 42.57422 21.03181 1798 ft 1 kts 266°
2026-04-07 17:20 42.57425 21.03200 1797 ft 2 kts 240°
2026-04-07 17:21 42.57435 21.03216 1798 ft 2 kts 219°
2026-04-07 17:21 42.57448 21.03227 1798 ft 2 kts 196°
2026-04-07 17:21 42.57459 21.03229 1798 ft 0 kts 179°
2026-04-07 17:21 42.57466 21.03228 1798 ft 0 kts 175°
2026-04-07 17:22 42.57467 21.03228 1798 ft 0 kts 175°
2026-04-07 17:23 42.57462 21.03229 1798 ft 1 kts 175°
2026-04-07 17:23 42.57435 21.03232 1797 ft 6 kts 175°
2026-04-07 17:24 42.57372 21.03238 1797 ft 9 kts 176°
2026-04-07 17:24 42.57322 21.03309 1797 ft 13 kts 116°
2026-04-07 17:24 42.57226 21.03350 1796 ft 16 kts 176°
2026-04-07 17:24 42.57097 21.03364 1796 ft 19 kts 175°
2026-04-07 17:25 42.56961 21.03378 1797 ft 19 kts 175°
2026-04-07 17:25 42.56824 21.03391 1798 ft 20 kts 176°
2026-04-07 17:25 42.56684 21.03405 1800 ft 20 kts 175°
2026-04-07 17:25 42.56542 21.03422 1801 ft 20 kts 175°
2026-04-07 17:26 42.56406 21.03432 1803 ft 19 kts 178°
2026-04-07 17:26 42.56276 21.03447 1804 ft 18 kts 174°
2026-04-07 17:26 42.56135 21.03461 1806 ft 21 kts 176°
2026-04-07 17:26 42.55975 21.03479 1807 ft 21 kts 176°
2026-04-07 17:27 42.55854 21.03489 1808 ft 14 kts 172°
2026-04-07 17:27 42.55805 21.03576 1809 ft 11 kts 86°
2026-04-07 17:27 42.55816 21.03690 1809 ft 12 kts 74°
2026-04-07 17:27 42.55889 21.03731 1808 ft 13 kts 355°
2026-04-07 17:28 42.56007 21.03718 1807 ft 32 kts 354°
2026-04-07 17:28 42.56476 21.03668 1802 ft 101 kts 355°
2026-04-07 17:28 42.57397 21.03571 1801 ft 158 kts 355°
2026-04-07 17:28 42.58531 21.03486 2267 ft 166 kts 357°
2026-04-07 17:29 42.59661 21.03417 2967 ft 165 kts 357°
2026-04-07 17:29 42.60796 21.03286 3682 ft 163 kts 354°
2026-04-07 17:29 42.61940 21.03105 4161 ft 174 kts 354°
2026-04-07 17:29 42.63189 21.02900 4559 ft 190 kts 343°
2026-04-07 17:30 42.64318 21.01876 4951 ft 207 kts 310°
2026-04-07 17:30 42.65208 21.00187 5329 ft 229 kts 305°
2026-04-07 17:30 42.66134 20.98357 5935 ft 241 kts 305°
2026-04-07 17:30 42.67087 20.96491 6767 ft 244 kts 305°
2026-04-07 17:31 42.68050 20.94620 7681 ft 243 kts 306°
2026-04-07 17:31 42.68989 20.92754 8579 ft 242 kts 300°
2026-04-07 17:31 42.69490 20.90518 9133 ft 260 kts 275°
2026-04-07 17:31 42.69123 20.88079 9810 ft 277 kts 248°
2026-04-07 17:32 42.68108 20.85850 10571 ft 285 kts 242°
2026-04-07 17:32 42.66980 20.83519 11014 ft 303 kts 242°
2026-04-07 17:32 42.65792 20.81056 11403 ft 321 kts 242°
2026-04-07 17:32 42.64557 20.78490 11832 ft 335 kts 242°
2026-04-07 17:33 42.63264 20.75812 12524 ft 341 kts 242°
2026-04-07 17:33 42.61969 20.73136 13266 ft 344 kts 242°
2026-04-07 17:33 42.60646 20.70403 13996 ft 347 kts 243°
2026-04-07 17:33 42.59316 20.67646 14682 ft 351 kts 242°
2026-04-07 17:34 42.57992 20.64896 15356 ft 354 kts 242°
2026-04-07 17:34 42.56627 20.62071 16013 ft 358 kts 242°
2026-04-07 17:34 42.55276 20.59277 16660 ft 361 kts 242°
2026-04-07 17:34 42.53899 20.56429 17293 ft 364 kts 242°
2026-04-07 17:35 42.52494 20.53530 17915 ft 367 kts 242°
2026-04-07 17:35 42.51102 20.50660 18528 ft 369 kts 242°
2026-04-07 17:35 42.49687 20.47745 19103 ft 373 kts 242°
2026-04-07 17:35 42.48254 20.44797 19658 ft 377 kts 242°
2026-04-07 17:36 42.46815 20.41840 20198 ft 380 kts 242°
2026-04-07 17:36 42.45356 20.38841 20720 ft 384 kts 242°
2026-04-07 17:36 42.43878 20.35809 21244 ft 387 kts 241°
2026-04-07 17:36 42.42393 20.32762 21745 ft 391 kts 240°
2026-04-07 17:37 42.40896 20.29690 22258 ft 394 kts 240°
2026-04-07 17:37 42.39379 20.26579 22755 ft 397 kts 240°
2026-04-07 17:37 42.37848 20.23450 23246 ft 400 kts 240°
2026-04-07 17:37 42.36417 20.20258 23716 ft 400 kts 246°
2026-04-07 17:38 42.35308 20.16867 24171 ft 399 kts 253°
2026-04-07 17:38 42.34532 20.13256 24624 ft 399 kts 261°
2026-04-07 17:38 42.33982 20.09597 25074 ft 401 kts 262°
2026-04-07 17:38 42.33466 20.05917 25501 ft 403 kts 263°
2026-04-07 17:39 42.32942 20.02176 25943 ft 406 kts 263°
2026-04-07 17:39 42.32408 19.98400 26338 ft 409 kts 263°
2026-04-07 17:39 42.31869 19.94623 26704 ft 412 kts 263°
2026-04-07 17:39 42.31325 19.90838 27072 ft 416 kts 263°
2026-04-07 17:40 42.30763 19.86952 27459 ft 418 kts 262°
2026-04-07 17:40 42.30201 19.83094 27842 ft 421 kts 263°
2026-04-07 17:40 42.29628 19.79168 28192 ft 423 kts 263°
2026-04-07 17:40 42.29062 19.75281 28544 ft 426 kts 262°
2026-04-07 17:41 42.28485 19.71370 28888 ft 428 kts 262°
2026-04-07 17:41 42.27901 19.67433 29223 ft 430 kts 262°
2026-04-07 17:41 42.27307 19.63430 29554 ft 433 kts 262°
2026-04-07 17:41 42.26718 19.59456 29870 ft 435 kts 262°
2026-04-07 17:42 42.26124 19.55458 30186 ft 437 kts 262°
2026-04-07 17:42 42.25527 19.51446 30582 ft 437 kts 262°
2026-04-07 17:42 42.25008 19.47463 30984 ft 433 kts 268°
2026-04-07 17:42 42.24931 19.43378 31365 ft 428 kts 277°
2026-04-07 17:43 42.25333 19.39438 31704 ft 425 kts 286°
2026-04-07 17:43 42.26185 19.35673 32036 ft 421 kts 295°
2026-04-07 17:43 42.27470 19.32110 32365 ft 419 kts 302°
2026-04-07 17:43 42.29115 19.28915 32696 ft 416 kts 311°
2026-04-07 17:44 42.31087 19.26123 33022 ft 414 kts 319°
2026-04-07 17:44 42.33368 19.23719 33358 ft 413 kts 325°
2026-04-07 17:44 42.35702 19.21525 33708 ft 412 kts 326°
2026-04-07 17:44 42.38068 19.19337 34032 ft 411 kts 326°
2026-04-07 17:45 42.40417 19.17167 34349 ft 411 kts 326°
2026-04-07 17:45 42.42772 19.14985 34630 ft 411 kts 326°
2026-04-07 17:45 42.45141 19.12786 34863 ft 412 kts 326°
2026-04-07 17:45 42.47493 19.10600 35094 ft 413 kts 326°
2026-04-07 17:46 42.49869 19.08387 35304 ft 415 kts 326°
2026-04-07 17:46 42.52233 19.06183 35504 ft 416 kts 326°
2026-04-07 17:46 42.54638 19.03938 35700 ft 417 kts 326°
2026-04-07 17:46 42.57017 19.01715 35898 ft 417 kts 326°
2026-04-07 17:47 42.59411 18.99474 36074 ft 418 kts 326°
2026-04-07 17:47 42.64203 18.94983 36158 ft 420 kts 326°
2026-04-07 17:48 42.68995 18.90481 36165 ft 419 kts 326°
2026-04-07 17:48 42.73791 18.85967 36168 ft 419 kts 326°
2026-04-07 17:49 42.78569 18.81461 36168 ft 418 kts 326°
2026-04-07 17:49 42.83342 18.76954 36165 ft 419 kts 326°
2026-04-07 17:50 42.88146 18.72407 36171 ft 419 kts 326°
2026-04-07 17:50 42.92899 18.67897 36170 ft 419 kts 326°
2026-04-07 17:51 42.97671 18.63361 36171 ft 419 kts 326°
2026-04-07 17:51 43.02478 18.58784 36171 ft 418 kts 326°
2026-04-07 17:52 43.07209 18.54271 36172 ft 418 kts 326°
2026-04-07 17:52 43.11973 18.49723 36169 ft 417 kts 326°
2026-04-07 17:53 43.16754 18.45171 36169 ft 418 kts 326°
2026-04-07 17:53 43.23889 18.38340 36165 ft 418 kts 326°
2026-04-07 17:54 43.28659 18.33751 36163 ft 418 kts 325°
2026-04-07 17:54 43.33396 18.29156 36162 ft 418 kts 325°
2026-04-07 17:55 43.38135 18.24563 36156 ft 417 kts 325°
2026-04-07 17:55 43.42891 18.19953 36152 ft 417 kts 325°
2026-04-07 17:56 43.47606 18.15380 36150 ft 417 kts 325°
2026-04-07 17:56 43.52337 18.10786 36150 ft 416 kts 325°
2026-04-07 17:57 43.57068 18.06179 36158 ft 417 kts 325°
2026-04-07 17:57 43.61808 18.01557 36158 ft 417 kts 325°
2026-04-07 17:58 43.66535 17.96938 36154 ft 417 kts 325°
2026-04-07 17:58 43.71263 17.92308 36149 ft 417 kts 325°
2026-04-07 17:59 43.75982 17.87677 36144 ft 416 kts 325°
2026-04-07 17:59 43.80690 17.83050 36151 ft 416 kts 325°
2026-04-07 18:00 43.85402 17.78408 36157 ft 416 kts 325°
2026-04-07 18:00 43.90086 17.73785 36157 ft 415 kts 325°
2026-04-07 18:01 43.94781 17.69141 36156 ft 415 kts 325°
2026-04-07 18:01 43.99497 17.64466 36159 ft 415 kts 325°
2026-04-07 18:02 44.04188 17.59809 36160 ft 415 kts 325°
2026-04-07 18:02 44.08875 17.55150 36161 ft 416 kts 325°
2026-04-07 18:03 44.13594 17.50462 36161 ft 416 kts 325°
2026-04-07 18:03 44.18298 17.45785 36162 ft 416 kts 325°
2026-04-07 18:04 44.22963 17.41124 36164 ft 416 kts 325°
2026-04-07 18:04 44.27636 17.36441 36164 ft 415 kts 325°
2026-04-07 18:05 44.32343 17.31696 36166 ft 416 kts 324°
2026-04-07 18:05 44.37027 17.26955 36169 ft 416 kts 324°
2026-04-07 18:06 44.41692 17.22239 36169 ft 415 kts 324°
2026-04-07 18:06 44.46376 17.17499 36167 ft 416 kts 324°
2026-04-07 18:07 44.51025 17.12786 36162 ft 416 kts 324°
2026-04-07 18:07 44.55697 17.08043 36161 ft 415 kts 324°
2026-04-07 18:08 44.60359 17.03299 36155 ft 415 kts 324°
2026-04-07 18:08 44.65042 16.98529 36147 ft 414 kts 324°
2026-04-07 18:09 44.69662 16.93811 36142 ft 414 kts 324°
2026-04-07 18:09 44.74337 16.89026 36143 ft 414 kts 324°
2026-04-07 18:10 44.79001 16.84242 36136 ft 414 kts 324°
2026-04-07 18:10 44.83637 16.79476 36138 ft 413 kts 324°
2026-04-07 18:11 44.88274 16.74701 36134 ft 413 kts 324°
2026-04-07 18:11 44.92906 16.69919 36133 ft 414 kts 324°
2026-04-07 18:12 44.97519 16.65148 36135 ft 414 kts 324°
2026-04-07 18:12 45.02150 16.60348 36131 ft 413 kts 324°
2026-04-07 18:13 45.06771 16.55544 36130 ft 413 kts 324°
2026-04-07 18:13 45.11413 16.50714 36131 ft 412 kts 324°
2026-04-07 18:14 45.15989 16.45810 36132 ft 413 kts 322°
2026-04-07 18:14 45.20410 16.40633 36132 ft 412 kts 321°
2026-04-07 18:15 45.24773 16.35470 36135 ft 412 kts 321°
2026-04-07 18:15 45.29203 16.30188 36135 ft 413 kts 321°
2026-04-07 18:16 45.33586 16.24953 36132 ft 413 kts 321°
2026-04-07 18:16 45.37978 16.19706 36132 ft 413 kts 321°
2026-04-07 18:17 45.42358 16.14469 36130 ft 413 kts 321°
2026-04-07 18:17 45.46742 16.09218 36128 ft 413 kts 321°
2026-04-07 18:18 45.51134 16.03949 36124 ft 413 kts 321°
2026-04-07 18:18 45.55441 15.98769 36124 ft 413 kts 321°
2026-04-07 18:19 45.59844 15.93462 36123 ft 413 kts 321°
2026-04-07 18:19 45.64222 15.88173 36123 ft 412 kts 321°
2026-04-07 18:20 45.68582 15.82897 36121 ft 413 kts 321°
2026-04-07 18:20 45.72945 15.77607 36123 ft 413 kts 321°
2026-04-07 18:21 45.77337 15.72266 36121 ft 413 kts 321°
2026-04-07 18:21 45.81701 15.66950 36123 ft 413 kts 321°
2026-04-07 18:22 45.86062 15.61627 36123 ft 413 kts 321°
2026-04-07 18:22 45.90433 15.56276 36122 ft 413 kts 321°
2026-04-07 18:23 45.94772 15.50954 36120 ft 413 kts 321°
2026-04-07 18:23 45.99117 15.45611 36118 ft 412 kts 321°
2026-04-07 18:24 46.03470 15.40244 36120 ft 413 kts 321°
2026-04-07 18:24 46.07834 15.34856 36123 ft 413 kts 320°
2026-04-07 18:25 46.12043 15.29232 36127 ft 413 kts 316°
2026-04-07 18:25 46.16037 15.23264 36125 ft 413 kts 315°
2026-04-07 18:26 46.19985 15.17292 36129 ft 413 kts 315°
2026-04-07 18:26 46.23968 15.11246 36128 ft 413 kts 315°
2026-04-07 18:27 46.27901 15.05261 36133 ft 414 kts 315°
2026-04-07 18:27 46.31869 14.99211 36134 ft 414 kts 315°
2026-04-07 18:28 46.35840 14.93139 36142 ft 413 kts 315°
2026-04-07 18:28 46.39761 14.87134 36148 ft 414 kts 315°
2026-04-07 18:29 46.43736 14.81031 36157 ft 414 kts 315°
2026-04-07 18:29 46.47668 14.74977 36172 ft 413 kts 315°
2026-04-07 18:30 46.51597 14.68910 36178 ft 413 kts 315°
2026-04-07 18:30 46.55517 14.62841 36177 ft 413 kts 316°
2026-04-07 18:31 46.59504 14.56903 36179 ft 412 kts 317°
2026-04-07 18:31 46.63515 14.50988 36187 ft 412 kts 317°
2026-04-07 18:32 46.67535 14.45007 36191 ft 412 kts 317°
2026-04-07 18:32 46.71531 14.39031 36192 ft 412 kts 317°
2026-04-07 18:33 46.75518 14.33044 36186 ft 412 kts 316°
2026-04-07 18:33 46.79508 14.27010 36197 ft 412 kts 316°
2026-04-07 18:34 46.83465 14.21026 36205 ft 411 kts 316°
2026-04-07 18:34 46.87414 14.15047 36216 ft 410 kts 316°
2026-04-07 18:35 46.91378 14.09035 36223 ft 410 kts 316°
2026-04-07 18:35 46.95313 14.03057 36234 ft 410 kts 316°
2026-04-07 18:36 46.99277 13.97021 36235 ft 410 kts 316°
2026-04-07 18:36 47.03206 13.91022 36226 ft 410 kts 316°
2026-04-07 18:37 47.07167 13.84962 36222 ft 410 kts 316°
2026-04-07 18:37 47.11092 13.78953 36231 ft 410 kts 316°
2026-04-07 18:38 47.15054 13.72904 36230 ft 410 kts 316°
2026-04-07 18:38 47.19011 13.66832 36230 ft 410 kts 316°
2026-04-07 18:39 47.22941 13.60774 36236 ft 410 kts 316°
2026-04-07 18:39 47.26877 13.54686 36245 ft 410 kts 316°
2026-04-07 18:40 47.30804 13.48598 36250 ft 411 kts 316°
2026-04-07 18:40 47.34735 13.42487 36240 ft 411 kts 316°
2026-04-07 18:41 47.38670 13.36355 36247 ft 411 kts 316°
2026-04-07 18:41 47.42543 13.30286 36245 ft 412 kts 315°
2026-04-07 18:42 47.46461 13.24131 36244 ft 411 kts 316°
2026-04-07 18:42 47.50389 13.17957 35987 ft 412 kts 316°
2026-04-07 18:43 47.52343 13.14881 35606 ft 410 kts 315°
2026-04-07 18:43 47.54279 13.11833 35169 ft 407 kts 316°
2026-04-07 18:43 47.56218 13.08773 34729 ft 405 kts 316°
2026-04-07 18:43 47.58157 13.05711 34307 ft 406 kts 316°
2026-04-07 18:44 47.60074 13.02685 33908 ft 407 kts 316°
2026-04-07 18:44 47.62033 12.99591 33499 ft 408 kts 316°
2026-04-07 18:44 47.63965 12.96533 33104 ft 409 kts 316°
2026-04-07 18:44 47.65915 12.93444 32705 ft 410 kts 316°
2026-04-07 18:45 47.67853 12.90368 32307 ft 412 kts 316°
2026-04-07 18:45 47.69809 12.87260 31908 ft 412 kts 316°
2026-04-07 18:45 47.71777 12.84131 31508 ft 413 kts 316°
2026-04-07 18:45 47.73738 12.81007 31113 ft 415 kts 316°
2026-04-07 18:46 47.75688 12.77898 30721 ft 416 kts 316°
2026-04-07 18:46 47.77669 12.74735 30351 ft 417 kts 316°
2026-04-07 18:46 47.81633 12.68395 30273 ft 418 kts 316°
2026-04-07 18:47 47.85572 12.62080 30270 ft 418 kts 316°
2026-04-07 18:47 47.89533 12.55717 30271 ft 418 kts 316°
2026-04-07 18:48 47.93480 12.49356 30270 ft 417 kts 316°
2026-04-07 18:48 47.97400 12.43028 30269 ft 418 kts 316°
2026-04-07 18:49 48.01338 12.36652 30268 ft 417 kts 316°
2026-04-07 18:49 48.05293 12.30208 30270 ft 418 kts 315°
2026-04-07 18:50 48.09223 12.23791 30052 ft 418 kts 315°
2026-04-07 18:50 48.11183 12.20598 29796 ft 415 kts 315°
2026-04-07 18:50 48.13107 12.17324 29528 ft 415 kts 310°
2026-04-07 18:51 48.14677 12.13653 29267 ft 418 kts 301°
2026-04-07 18:51 48.15818 12.09646 29009 ft 422 kts 292°
2026-04-07 18:51 48.16509 12.05386 28754 ft 426 kts 283°
2026-04-07 18:51 48.16858 12.00986 28499 ft 427 kts 280°
2026-04-07 18:52 48.17135 11.96538 28299 ft 426 kts 280°
2026-04-07 18:52 48.17401 11.92138 28275 ft 427 kts 280°
2026-04-07 18:52 48.18035 11.83368 28270 ft 424 kts 283°
2026-04-07 18:53 48.19223 11.74716 28265 ft 422 kts 288°
2026-04-07 18:53 48.20009 11.70502 28164 ft 419 kts 295°
2026-04-07 18:53 48.21153 11.66574 27908 ft 414 kts 300°
2026-04-07 18:54 48.22423 11.62691 27647 ft 413 kts 300°
2026-04-07 18:54 48.23679 11.58854 27390 ft 411 kts 300°
2026-04-07 18:54 48.24927 11.54971 27131 ft 410 kts 299°
2026-04-07 18:54 48.26134 11.51145 26873 ft 408 kts 299°
2026-04-07 18:55 48.27327 11.47313 26616 ft 407 kts 299°
2026-04-07 18:55 48.28519 11.43455 26356 ft 406 kts 298°
2026-04-07 18:55 48.29697 11.39614 26101 ft 405 kts 298°
2026-04-07 18:55 48.30860 11.35811 25844 ft 403 kts 298°
2026-04-07 18:56 48.32025 11.31978 25587 ft 402 kts 297°
2026-04-07 18:56 48.33191 11.28122 25324 ft 401 kts 297°
2026-04-07 18:56 48.34332 11.24348 25059 ft 400 kts 297°
2026-04-07 18:56 48.35480 11.20546 24784 ft 398 kts 297°
2026-04-07 18:57 48.36617 11.16772 24458 ft 396 kts 297°
2026-04-07 18:57 48.37753 11.13001 24048 ft 393 kts 297°
2026-04-07 18:57 48.38878 11.09265 23587 ft 390 kts 297°
2026-04-07 18:57 48.39986 11.05580 23111 ft 387 kts 297°
2026-04-07 18:58 48.41078 11.01936 22637 ft 384 kts 297°
2026-04-07 18:58 48.42180 10.98258 22163 ft 381 kts 297°
2026-04-07 18:58 48.43261 10.94646 21700 ft 377 kts 297°
2026-04-07 18:58 48.44333 10.91056 21245 ft 374 kts 297°
2026-04-07 18:59 48.45385 10.87531 20799 ft 371 kts 297°
2026-04-07 18:59 48.46438 10.83999 20299 ft 372 kts 297°
2026-04-07 18:59 48.47493 10.80454 19788 ft 370 kts 297°
2026-04-07 18:59 48.48546 10.76910 19287 ft 368 kts 297°
2026-04-07 19:00 48.49577 10.73434 18784 ft 365 kts 297°
2026-04-07 19:00 48.50608 10.69953 18302 ft 363 kts 298°
2026-04-07 19:00 48.51638 10.66470 17794 ft 361 kts 297°
2026-04-07 19:00 48.52651 10.63041 17302 ft 359 kts 297°
2026-04-07 19:01 48.53661 10.59619 16821 ft 357 kts 297°
2026-04-07 19:01 48.54674 10.56180 16317 ft 355 kts 297°
2026-04-07 19:01 48.56652 10.49449 15348 ft 351 kts 297°
2026-04-07 19:02 48.57632 10.46106 14854 ft 349 kts 297°
2026-04-07 19:02 48.58614 10.42754 14355 ft 346 kts 297°
2026-04-07 19:02 48.59587 10.39425 13854 ft 344 kts 297°
2026-04-07 19:02 48.60445 10.36102 13362 ft 344 kts 291°
2026-04-07 19:03 48.61115 10.32583 12861 ft 343 kts 288°
2026-04-07 19:03 48.61723 10.29131 12366 ft 341 kts 288°
2026-04-07 19:03 48.62331 10.25699 11871 ft 339 kts 288°
2026-04-07 19:03 48.62951 10.22254 11435 ft 333 kts 288°
2026-04-07 19:04 48.63549 10.18954 11291 ft 319 kts 288°
2026-04-07 19:04 48.64128 10.15772 11280 ft 302 kts 288°
2026-04-07 19:04 48.64673 10.12797 11275 ft 290 kts 288°
2026-04-07 19:04 48.65209 10.09891 11272 ft 289 kts 289°
2026-04-07 19:05 48.65754 10.06944 11272 ft 289 kts 289°
2026-04-07 19:05 48.66295 10.04014 11274 ft 289 kts 289°
2026-04-07 19:05 48.66831 10.01101 11274 ft 290 kts 289°
2026-04-07 19:05 48.67376 9.98134 11276 ft 290 kts 289°
2026-04-07 19:06 48.67917 9.95191 11276 ft 290 kts 289°
2026-04-07 19:06 48.68453 9.92264 11270 ft 290 kts 289°
2026-04-07 19:06 48.68993 9.89312 11256 ft 289 kts 289°
2026-04-07 19:06 48.69523 9.86404 10966 ft 286 kts 289°
2026-04-07 19:07 48.70047 9.83533 10549 ft 286 kts 288°
2026-04-07 19:07 48.70571 9.80655 10156 ft 284 kts 288°
2026-04-07 19:07 48.71101 9.77741 9758 ft 283 kts 288°
2026-04-07 19:07 48.71613 9.74916 9438 ft 280 kts 288°
2026-04-07 19:08 48.72125 9.72083 9141 ft 275 kts 288°
2026-04-07 19:08 48.72628 9.69295 8849 ft 271 kts 288°
2026-04-07 19:08 48.73117 9.66582 8522 ft 266 kts 288°
2026-04-07 19:08 48.73598 9.63905 8218 ft 260 kts 288°
2026-04-07 19:09 48.74066 9.61302 7923 ft 254 kts 288°
2026-04-07 19:09 48.74525 9.58747 7627 ft 248 kts 288°
2026-04-07 19:09 48.74967 9.56264 7256 ft 241 kts 285°
2026-04-07 19:09 48.75014 9.53791 6718 ft 242 kts 260°
2026-04-07 19:10 48.74592 9.51269 5913 ft 252 kts 255°
2026-04-07 19:10 48.74079 9.48720 5053 ft 261 kts 254°
2026-04-07 19:10 48.73546 9.46084 4277 ft 264 kts 254°
2026-04-07 19:10 48.73031 9.43451 3745 ft 257 kts 255°
2026-04-07 19:11 48.72543 9.40902 3379 ft 245 kts 255°
2026-04-07 19:11 48.72086 9.38496 3058 ft 232 kts 255°
2026-04-07 19:11 48.71661 9.36268 2746 ft 210 kts 255°
2026-04-07 19:11 48.71279 9.34258 2558 ft 188 kts 255°
2026-04-07 19:12 48.70926 9.32402 2311 ft 175 kts 255°
2026-04-07 19:12 48.70599 9.30686 2064 ft 162 kts 255°
2026-04-07 19:12 48.70298 9.29111 1827 ft 149 kts 256°
2026-04-07 19:12 48.70023 9.27683 1623 ft 137 kts 257°
2026-04-07 19:13 48.69762 9.26303 1452 ft 135 kts 256°
2026-04-07 19:13 48.69505 9.24948 1278 ft 133 kts 256°
2026-04-07 19:13 48.69258 9.23614 1203 ft 121 kts 255°
2026-04-07 19:13 48.69070 9.22616 1221 ft 81 kts 254°
2026-04-07 19:14 48.68954 9.21995 1233 ft 37 kts 261°
2026-04-07 19:14 48.68950 9.21729 1240 ft 21 kts 279°
2026-04-07 19:14 48.68975 9.21561 1247 ft 12 kts 284°
2026-04-07 19:14 48.68994 9.21442 1250 ft 10 kts 282°
2026-04-07 19:15 48.69002 9.21337 1253 ft 8 kts 259°
2026-04-07 19:15 48.68988 9.21258 1255 ft 7 kts 254°
2026-04-07 19:15 48.68976 9.21195 1257 ft 5 kts 253°
2026-04-07 19:15 48.68966 9.21143 1259 ft 4 kts 253°
2026-04-07 19:16 48.68959 9.21113 1260 ft 1 kts 253°
2026-04-07 19:16 48.68957 9.21100 1260 ft 1 kts 254°
2026-04-07 19:16 48.68951 9.21066 1261 ft 5 kts 255°
2026-04-07 19:16 48.68938 9.20989 1264 ft 9 kts 255°
2026-04-07 19:17 48.68916 9.20874 1268 ft 12 kts 252°
2026-04-07 19:17 48.68886 9.20727 1272 ft 16 kts 253°
2026-04-07 19:17 48.68851 9.20542 1276 ft 19 kts 253°
2026-04-07 19:17 48.68810 9.20332 1281 ft 21 kts 254°
2026-04-07 19:18 48.68768 9.20106 1289 ft 19 kts 252°
2026-04-07 19:18 48.68762 9.19894 1293 ft 18 kts 265°
2026-04-07 19:18 48.68733 9.19719 1297 ft 17 kts 253°
2026-04-07 19:18 48.68699 9.19530 1303 ft 19 kts 256°
2026-04-07 19:19 48.68660 9.19334 1308 ft 19 kts 253°
2026-04-07 19:19 48.68658 9.19178 1311 ft 13 kts 317°
2026-04-07 19:19 48.68747 9.19150 1312 ft 12 kts 20°
2026-04-07 19:19 48.68779 9.19226 1312 ft 7 kts 72°
2026-04-07 19:20 48.68758 9.19259 1311 ft 6 kts 179°
2026-04-07 19:20 48.68717 9.19265 1310 ft 6 kts 165°
2026-04-07 19:20 48.68711 9.19267 1310 ft 0 kts 165°